sensor_id;sensor_type;location;lat;lon;timestamp;P1;durP1;ratioP1;P2;durP2;ratioP2
19347;SDS011;9810;52.480;9.806;2023-05-24T00:00:58;10.97;;;2.47;;
19347;SDS011;9810;52.480;9.806;2023-05-24T00:03:26;11.13;;;2.83;;
19347;SDS011;9810;52.480;9.806;2023-05-24T00:05:58;11.60;;;3.50;;
19347;SDS011;9810;52.480;9.806;2023-05-24T00:08:28;15.47;;;2.80;;
19347;SDS011;9810;52.480;9.806;2023-05-24T00:10:56;13.80;;;3.57;;
19347;SDS011;9810;52.480;9.806;2023-05-24T00:13:23;15.57;;;3.20;;
19347;SDS011;9810;52.480;9.806;2023-05-24T00:15:51;11.53;;;2.73;;
19347;SDS011;9810;52.480;9.806;2023-05-24T00:18:19;13.07;;;3.47;;
19347;SDS011;9810;52.480;9.806;2023-05-24T00:20:47;13.13;;;3.47;;
19347;SDS011;9810;52.480;9.806;2023-05-24T00:23:15;9.53;;;3.50;;
19347;SDS011;9810;52.480;9.806;2023-05-24T00:25:45;14.70;;;2.80;;
19347;SDS011;9810;52.480;9.806;2023-05-24T00:28:13;13.43;;;3.07;;
19347;SDS011;9810;52.480;9.806;2023-05-24T00:30:40;12.10;;;3.00;;
19347;SDS011;9810;52.480;9.806;2023-05-24T00:33:08;17.63;;;3.33;;
19347;SDS011;9810;52.480;9.806;2023-05-24T00:35:36;15.03;;;2.63;;
19347;SDS011;9810;52.480;9.806;2023-05-24T00:38:03;9.90;;;2.13;;
19347;SDS011;9810;52.480;9.806;2023-05-24T00:40:30;14.43;;;2.83;;
19347;SDS011;9810;52.480;9.806;2023-05-24T00:43:00;14.40;;;2.90;;
19347;SDS011;9810;52.480;9.806;2023-05-24T00:45:27;19.47;;;3.70;;
19347;SDS011;9810;52.480;9.806;2023-05-24T00:47:55;13.17;;;4.10;;
19347;SDS011;9810;52.480;9.806;2023-05-24T00:50:22;14.17;;;3.47;;
19347;SDS011;9810;52.480;9.806;2023-05-24T00:52:50;14.90;;;3.87;;
19347;SDS011;9810;52.480;9.806;2023-05-24T00:55:18;20.63;;;3.33;;
19347;SDS011;9810;52.480;9.806;2023-05-24T00:57:45;9.03;;;2.83;;
19347;SDS011;9810;52.480;9.806;2023-05-24T01:00:15;16.07;;;3.47;;
19347;SDS011;9810;52.480;9.806;2023-05-24T01:02:42;18.10;;;3.40;;
19347;SDS011;9810;52.480;9.806;2023-05-24T01:05:12;14.43;;;3.63;;
19347;SDS011;9810;52.480;9.806;2023-05-24T01:07:44;18.93;;;3.10;;
19347;SDS011;9810;52.480;9.806;2023-05-24T01:10:30;25.30;;;3.43;;
19347;SDS011;9810;52.480;9.806;2023-05-24T01:13:04;16.40;;;3.67;;
19347;SDS011;9810;52.480;9.806;2023-05-24T01:15:41;13.67;;;3.50;;
19347;SDS011;9810;52.480;9.806;2023-05-24T01:18:17;14.70;;;2.93;;
19347;SDS011;9810;52.480;9.806;2023-05-24T01:21:05;9.50;;;2.83;;
19347;SDS011;9810;52.480;9.806;2023-05-24T01:23:43;14.13;;;3.27;;
19347;SDS011;9810;52.480;9.806;2023-05-24T01:26:29;19.30;;;3.80;;
19347;SDS011;9810;52.480;9.806;2023-05-24T01:29:04;13.77;;;3.40;;
19347;SDS011;9810;52.480;9.806;2023-05-24T01:31:32;18.53;;;3.67;;
19347;SDS011;9810;52.480;9.806;2023-05-24T01:34:00;13.13;;;3.67;;
19347;SDS011;9810;52.480;9.806;2023-05-24T01:36:27;16.53;;;4.17;;
19347;SDS011;9810;52.480;9.806;2023-05-24T01:38:55;19.37;;;3.73;;
19347;SDS011;9810;52.480;9.806;2023-05-24T01:41:25;17.10;;;4.00;;
19347;SDS011;9810;52.480;9.806;2023-05-24T01:44:09;15.73;;;4.40;;
19347;SDS011;9810;52.480;9.806;2023-05-24T01:46:41;18.10;;;3.73;;
19347;SDS011;9810;52.480;9.806;2023-05-24T01:49:16;19.53;;;3.87;;
19347;SDS011;9810;52.480;9.806;2023-05-24T01:51:49;17.87;;;4.60;;
19347;SDS011;9810;52.480;9.806;2023-05-24T01:54:20;19.70;;;3.63;;
19347;SDS011;9810;52.480;9.806;2023-05-24T01:56:51;14.03;;;4.00;;
19347;SDS011;9810;52.480;9.806;2023-05-24T01:59:22;15.30;;;4.10;;
19347;SDS011;9810;52.480;9.806;2023-05-24T02:01:51;18.63;;;4.37;;
19347;SDS011;9810;52.480;9.806;2023-05-24T02:04:21;19.80;;;4.23;;
19347;SDS011;9810;52.480;9.806;2023-05-24T02:06:49;14.50;;;4.80;;
19347;SDS011;9810;52.480;9.806;2023-05-24T02:09:17;15.37;;;3.80;;
19347;SDS011;9810;52.480;9.806;2023-05-24T02:11:44;23.83;;;4.07;;
19347;SDS011;9810;52.480;9.806;2023-05-24T02:14:11;14.77;;;3.47;;
19347;SDS011;9810;52.480;9.806;2023-05-24T02:16:41;15.67;;;3.30;;
19347;SDS011;9810;52.480;9.806;2023-05-24T02:19:10;14.17;;;4.10;;
19347;SDS011;9810;52.480;9.806;2023-05-24T02:21:38;17.63;;;3.80;;
19347;SDS011;9810;52.480;9.806;2023-05-24T02:24:05;19.63;;;5.00;;
19347;SDS011;9810;52.480;9.806;2023-05-24T02:26:35;20.73;;;4.77;;
19347;SDS011;9810;52.480;9.806;2023-05-24T02:29:02;20.63;;;5.17;;
19347;SDS011;9810;52.480;9.806;2023-05-24T02:31:30;33.40;;;6.83;;
19347;SDS011;9810;52.480;9.806;2023-05-24T02:33:59;27.20;;;5.60;;
19347;SDS011;9810;52.480;9.806;2023-05-24T02:36:26;19.00;;;4.80;;
19347;SDS011;9810;52.480;9.806;2023-05-24T02:38:53;17.00;;;3.97;;
19347;SDS011;9810;52.480;9.806;2023-05-24T02:41:21;20.87;;;4.63;;
19347;SDS011;9810;52.480;9.806;2023-05-24T02:43:48;19.50;;;4.43;;
19347;SDS011;9810;52.480;9.806;2023-05-24T02:46:16;18.93;;;4.43;;
19347;SDS011;9810;52.480;9.806;2023-05-24T02:48:43;17.27;;;4.27;;
19347;SDS011;9810;52.480;9.806;2023-05-24T02:51:12;22.67;;;4.57;;
19347;SDS011;9810;52.480;9.806;2023-05-24T02:53:39;29.03;;;4.73;;
19347;SDS011;9810;52.480;9.806;2023-05-24T02:56:09;19.53;;;4.20;;
19347;SDS011;9810;52.480;9.806;2023-05-24T02:58:37;19.73;;;4.57;;
19347;SDS011;9810;52.480;9.806;2023-05-24T03:01:06;26.90;;;6.50;;
19347;SDS011;9810;52.480;9.806;2023-05-24T03:03:33;16.07;;;4.00;;
19347;SDS011;9810;52.480;9.806;2023-05-24T03:06:00;22.97;;;5.80;;
19347;SDS011;9810;52.480;9.806;2023-05-24T03:08:29;23.53;;;4.33;;
19347;SDS011;9810;52.480;9.806;2023-05-24T03:10:56;21.10;;;5.17;;
19347;SDS011;9810;52.480;9.806;2023-05-24T03:13:23;19.33;;;4.50;;
19347;SDS011;9810;52.480;9.806;2023-05-24T03:15:51;23.50;;;4.67;;
19347;SDS011;9810;52.480;9.806;2023-05-24T03:18:18;16.10;;;4.07;;
19347;SDS011;9810;52.480;9.806;2023-05-24T03:20:45;19.50;;;4.23;;
19347;SDS011;9810;52.480;9.806;2023-05-24T03:23:13;23.33;;;4.50;;
19347;SDS011;9810;52.480;9.806;2023-05-24T03:25:42;17.37;;;4.40;;
19347;SDS011;9810;52.480;9.806;2023-05-24T03:28:09;17.50;;;4.07;;
19347;SDS011;9810;52.480;9.806;2023-05-24T03:30:38;19.97;;;5.23;;
19347;SDS011;9810;52.480;9.806;2023-05-24T03:33:06;17.37;;;4.53;;
19347;SDS011;9810;52.480;9.806;2023-05-24T03:35:33;21.20;;;3.83;;
19347;SDS011;9810;52.480;9.806;2023-05-24T03:38:00;24.47;;;5.23;;
19347;SDS011;9810;52.480;9.806;2023-05-24T03:40:28;16.93;;;4.77;;
19347;SDS011;9810;52.480;9.806;2023-05-24T03:42:59;23.10;;;5.00;;
19347;SDS011;9810;52.480;9.806;2023-05-24T03:45:26;24.13;;;4.80;;
19347;SDS011;9810;52.480;9.806;2023-05-24T03:47:54;22.93;;;5.00;;
19347;SDS011;9810;52.480;9.806;2023-05-24T03:50:21;30.93;;;5.03;;
19347;SDS011;9810;52.480;9.806;2023-05-24T03:52:48;21.23;;;5.10;;
19347;SDS011;9810;52.480;9.806;2023-05-24T03:55:16;22.60;;;5.47;;
19347;SDS011;9810;52.480;9.806;2023-05-24T03:57:43;16.83;;;4.20;;
19347;SDS011;9810;52.480;9.806;2023-05-24T04:00:13;18.23;;;5.17;;
19347;SDS011;9810;52.480;9.806;2023-05-24T04:02:41;24.90;;;6.00;;
19347;SDS011;9810;52.480;9.806;2023-05-24T04:05:09;22.60;;;5.63;;
19347;SDS011;9810;52.480;9.806;2023-05-24T04:07:37;23.03;;;5.50;;
19347;SDS011;9810;52.480;9.806;2023-05-24T04:10:06;22.83;;;5.10;;
19347;SDS011;9810;52.480;9.806;2023-05-24T04:12:34;22.23;;;4.70;;
19347;SDS011;9810;52.480;9.806;2023-05-24T04:15:01;34.77;;;4.73;;
19347;SDS011;9810;52.480;9.806;2023-05-24T04:17:31;22.00;;;4.97;;
19347;SDS011;9810;52.480;9.806;2023-05-24T04:19:58;26.20;;;5.33;;
19347;SDS011;9810;52.480;9.806;2023-05-24T04:22:26;16.33;;;4.30;;
19347;SDS011;9810;52.480;9.806;2023-05-24T04:24:53;17.37;;;5.23;;
19347;SDS011;9810;52.480;9.806;2023-05-24T04:27:20;24.30;;;4.07;;
19347;SDS011;9810;52.480;9.806;2023-05-24T04:29:50;20.90;;;3.83;;
19347;SDS011;9810;52.480;9.806;2023-05-24T04:32:17;21.83;;;4.87;;
19347;SDS011;9810;52.480;9.806;2023-05-24T04:34:46;25.70;;;5.53;;
19347;SDS011;9810;52.480;9.806;2023-05-24T04:37:18;18.50;;;5.80;;
19347;SDS011;9810;52.480;9.806;2023-05-24T04:39:45;23.73;;;5.17;;
19347;SDS011;9810;52.480;9.806;2023-05-24T04:42:14;23.40;;;5.37;;
19347;SDS011;9810;52.480;9.806;2023-05-24T04:44:41;16.93;;;5.43;;
19347;SDS011;9810;52.480;9.806;2023-05-24T04:47:09;29.67;;;5.20;;
19347;SDS011;9810;52.480;9.806;2023-05-24T04:49:36;20.53;;;4.83;;
19347;SDS011;9810;52.480;9.806;2023-05-24T04:52:06;25.93;;;4.57;;
19347;SDS011;9810;52.480;9.806;2023-05-24T04:54:33;23.83;;;5.10;;
19347;SDS011;9810;52.480;9.806;2023-05-24T04:57:01;27.40;;;4.93;;
19347;SDS011;9810;52.480;9.806;2023-05-24T04:59:28;29.07;;;5.07;;
19347;SDS011;9810;52.480;9.806;2023-05-24T05:01:57;26.53;;;5.50;;
19347;SDS011;9810;52.480;9.806;2023-05-24T05:04:25;27.43;;;4.53;;
19347;SDS011;9810;52.480;9.806;2023-05-24T05:06:52;25.23;;;5.97;;
19347;SDS011;9810;52.480;9.806;2023-05-24T05:09:21;15.50;;;4.57;;
19347;SDS011;9810;52.480;9.806;2023-05-24T05:11:49;18.73;;;4.13;;
19347;SDS011;9810;52.480;9.806;2023-05-24T05:14:16;22.83;;;5.73;;
19347;SDS011;9810;52.480;9.806;2023-05-24T05:16:43;17.37;;;4.30;;
19347;SDS011;9810;52.480;9.806;2023-05-24T05:19:13;23.87;;;5.70;;
19347;SDS011;9810;52.480;9.806;2023-05-24T05:21:40;20.90;;;5.23;;
19347;SDS011;9810;52.480;9.806;2023-05-24T05:24:08;23.97;;;5.67;;
19347;SDS011;9810;52.480;9.806;2023-05-24T05:26:37;17.30;;;4.70;;
19347;SDS011;9810;52.480;9.806;2023-05-24T05:29:05;20.33;;;4.20;;
19347;SDS011;9810;52.480;9.806;2023-05-24T05:31:32;24.70;;;4.67;;
19347;SDS011;9810;52.480;9.806;2023-05-24T05:33:59;23.80;;;5.57;;
19347;SDS011;9810;52.480;9.806;2023-05-24T05:36:27;17.47;;;4.17;;
19347;SDS011;9810;52.480;9.806;2023-05-24T05:39:04;17.27;;;4.83;;
19347;SDS011;9810;52.480;9.806;2023-05-24T05:41:33;17.30;;;4.87;;
19347;SDS011;9810;52.480;9.806;2023-05-24T05:44:08;18.70;;;4.40;;
19347;SDS011;9810;52.480;9.806;2023-05-24T05:46:35;16.37;;;4.10;;
19347;SDS011;9810;52.480;9.806;2023-05-24T05:49:03;19.63;;;5.53;;
19347;SDS011;9810;52.480;9.806;2023-05-24T05:51:30;18.73;;;4.63;;
19347;SDS011;9810;52.480;9.806;2023-05-24T05:53:57;22.17;;;5.73;;
19347;SDS011;9810;52.480;9.806;2023-05-24T05:56:24;16.33;;;4.30;;
19347;SDS011;9810;52.480;9.806;2023-05-24T05:58:55;15.93;;;4.03;;
19347;SDS011;9810;52.480;9.806;2023-05-24T06:01:22;22.50;;;4.97;;
19347;SDS011;9810;52.480;9.806;2023-05-24T06:03:49;24.23;;;5.60;;
19347;SDS011;9810;52.480;9.806;2023-05-24T06:06:17;21.53;;;5.47;;
19347;SDS011;9810;52.480;9.806;2023-05-24T06:08:44;21.03;;;5.50;;
19347;SDS011;9810;52.480;9.806;2023-05-24T06:11:12;19.97;;;4.33;;
19347;SDS011;9810;52.480;9.806;2023-05-24T06:13:39;18.03;;;4.53;;
19347;SDS011;9810;52.480;9.806;2023-05-24T06:16:08;22.67;;;5.67;;
19347;SDS011;9810;52.480;9.806;2023-05-24T06:18:38;25.27;;;5.13;;
19347;SDS011;9810;52.480;9.806;2023-05-24T06:21:06;18.37;;;4.50;;
19347;SDS011;9810;52.480;9.806;2023-05-24T06:23:34;24.60;;;5.17;;
19347;SDS011;9810;52.480;9.806;2023-05-24T06:26:02;21.40;;;4.60;;
19347;SDS011;9810;52.480;9.806;2023-05-24T06:28:29;17.10;;;4.70;;
19347;SDS011;9810;52.480;9.806;2023-05-24T06:30:57;27.53;;;4.97;;
19347;SDS011;9810;52.480;9.806;2023-05-24T06:33:26;22.73;;;4.90;;
19347;SDS011;9810;52.480;9.806;2023-05-24T06:35:53;24.60;;;6.27;;
19347;SDS011;9810;52.480;9.806;2023-05-24T06:38:21;18.63;;;5.33;;
19347;SDS011;9810;52.480;9.806;2023-05-24T06:40:48;15.63;;;3.90;;
19347;SDS011;9810;52.480;9.806;2023-05-24T06:43:16;21.63;;;5.03;;
19347;SDS011;9810;52.480;9.806;2023-05-24T06:45:43;29.03;;;5.30;;
19347;SDS011;9810;52.480;9.806;2023-05-24T06:48:10;24.27;;;4.67;;
19347;SDS011;9810;52.480;9.806;2023-05-24T06:50:39;17.83;;;5.17;;
19347;SDS011;9810;52.480;9.806;2023-05-24T06:53:07;15.67;;;4.60;;
19347;SDS011;9810;52.480;9.806;2023-05-24T06:55:34;19.40;;;4.87;;
19347;SDS011;9810;52.480;9.806;2023-05-24T06:58:02;16.70;;;3.73;;
19347;SDS011;9810;52.480;9.806;2023-05-24T07:00:30;19.70;;;4.57;;
19347;SDS011;9810;52.480;9.806;2023-05-24T07:02:58;19.37;;;3.80;;
19347;SDS011;9810;52.480;9.806;2023-05-24T07:05:25;26.47;;;5.27;;
19347;SDS011;9810;52.480;9.806;2023-05-24T07:07:54;22.23;;;4.63;;
19347;SDS011;9810;52.480;9.806;2023-05-24T07:10:21;17.53;;;4.17;;
19347;SDS011;9810;52.480;9.806;2023-05-24T07:12:49;14.17;;;4.33;;
19347;SDS011;9810;52.480;9.806;2023-05-24T07:15:16;16.13;;;4.27;;
19347;SDS011;9810;52.480;9.806;2023-05-24T07:17:43;12.70;;;3.87;;
19347;SDS011;9810;52.480;9.806;2023-05-24T07:20:12;21.20;;;4.00;;
19347;SDS011;9810;52.480;9.806;2023-05-24T07:22:39;20.03;;;3.90;;
19347;SDS011;9810;52.480;9.806;2023-05-24T07:25:10;12.87;;;3.40;;
19347;SDS011;9810;52.480;9.806;2023-05-24T07:27:38;25.13;;;6.23;;
19347;SDS011;9810;52.480;9.806;2023-05-24T07:30:06;23.13;;;4.57;;
19347;SDS011;9810;52.480;9.806;2023-05-24T07:32:34;19.60;;;4.30;;
19347;SDS011;9810;52.480;9.806;2023-05-24T07:35:01;18.00;;;4.43;;
19347;SDS011;9810;52.480;9.806;2023-05-24T07:37:29;18.77;;;3.50;;
19347;SDS011;9810;52.480;9.806;2023-05-24T07:39:56;17.77;;;4.30;;
19347;SDS011;9810;52.480;9.806;2023-05-24T07:42:26;21.83;;;5.72;;
19347;SDS011;9810;52.480;9.806;2023-05-24T07:44:53;15.17;;;4.53;;
19347;SDS011;9810;52.480;9.806;2023-05-24T07:47:21;15.37;;;3.87;;
19347;SDS011;9810;52.480;9.806;2023-05-24T07:49:48;13.87;;;5.07;;
19347;SDS011;9810;52.480;9.806;2023-05-24T07:52:15;22.23;;;5.60;;
19347;SDS011;9810;52.480;9.806;2023-05-24T07:54:42;15.70;;;5.03;;
19347;SDS011;9810;52.480;9.806;2023-05-24T07:57:09;17.70;;;4.33;;
19347;SDS011;9810;52.480;9.806;2023-05-24T07:59:38;24.43;;;4.80;;
19347;SDS011;9810;52.480;9.806;2023-05-24T08:02:06;24.93;;;5.53;;
19347;SDS011;9810;52.480;9.806;2023-05-24T08:04:35;18.30;;;4.73;;
19347;SDS011;9810;52.480;9.806;2023-05-24T08:07:03;17.93;;;5.43;;
19347;SDS011;9810;52.480;9.806;2023-05-24T08:09:30;21.60;;;4.93;;
19347;SDS011;9810;52.480;9.806;2023-05-24T08:12:00;19.50;;;4.43;;
19347;SDS011;9810;52.480;9.806;2023-05-24T08:14:27;18.17;;;4.43;;
19347;SDS011;9810;52.480;9.806;2023-05-24T08:16:57;21.00;;;4.47;;
19347;SDS011;9810;52.480;9.806;2023-05-24T08:19:25;20.53;;;5.23;;
19347;SDS011;9810;52.480;9.806;2023-05-24T08:21:53;23.63;;;5.87;;
19347;SDS011;9810;52.480;9.806;2023-05-24T08:24:21;19.87;;;5.87;;
19347;SDS011;9810;52.480;9.806;2023-05-24T08:26:48;21.13;;;4.87;;
19347;SDS011;9810;52.480;9.806;2023-05-24T08:29:16;24.70;;;7.27;;
19347;SDS011;9810;52.480;9.806;2023-05-24T08:31:44;16.97;;;4.90;;
19347;SDS011;9810;52.480;9.806;2023-05-24T08:34:14;18.50;;;5.47;;
19347;SDS011;9810;52.480;9.806;2023-05-24T08:36:42;18.03;;;5.10;;
19347;SDS011;9810;52.480;9.806;2023-05-24T08:39:09;17.47;;;4.80;;
19347;SDS011;9810;52.480;9.806;2023-05-24T08:41:37;23.80;;;6.10;;
19347;SDS011;9810;52.480;9.806;2023-05-24T08:44:05;16.67;;;5.00;;
19347;SDS011;9810;52.480;9.806;2023-05-24T08:46:34;16.13;;;4.77;;
19347;SDS011;9810;52.480;9.806;2023-05-24T08:49:03;21.70;;;4.87;;
19347;SDS011;9810;52.480;9.806;2023-05-24T08:51:33;21.93;;;5.37;;
19347;SDS011;9810;52.480;9.806;2023-05-24T08:54:02;17.80;;;5.27;;
19347;SDS011;9810;52.480;9.806;2023-05-24T08:56:32;20.80;;;5.43;;
19347;SDS011;9810;52.480;9.806;2023-05-24T08:59:00;17.97;;;5.30;;
19347;SDS011;9810;52.480;9.806;2023-05-24T09:01:27;20.00;;;5.50;;
19347;SDS011;9810;52.480;9.806;2023-05-24T09:03:56;18.50;;;5.10;;
19347;SDS011;9810;52.480;9.806;2023-05-24T09:06:26;21.27;;;5.30;;
19347;SDS011;9810;52.480;9.806;2023-05-24T09:08:55;24.07;;;6.10;;
19347;SDS011;9810;52.480;9.806;2023-05-24T09:11:24;15.73;;;4.57;;
19347;SDS011;9810;52.480;9.806;2023-05-24T09:13:52;20.27;;;5.43;;
19347;SDS011;9810;52.480;9.806;2023-05-24T09:16:21;19.27;;;5.67;;
19347;SDS011;9810;52.480;9.806;2023-05-24T09:18:49;17.57;;;4.73;;
19347;SDS011;9810;52.480;9.806;2023-05-24T09:21:17;25.50;;;4.97;;
19347;SDS011;9810;52.480;9.806;2023-05-24T09:23:45;22.73;;;5.60;;
19347;SDS011;9810;52.480;9.806;2023-05-24T09:26:14;24.77;;;6.27;;
19347;SDS011;9810;52.480;9.806;2023-05-24T09:28:42;15.03;;;4.93;;
19347;SDS011;9810;52.480;9.806;2023-05-24T09:31:10;19.30;;;5.33;;
19347;SDS011;9810;52.480;9.806;2023-05-24T09:33:37;21.20;;;5.40;;
19347;SDS011;9810;52.480;9.806;2023-05-24T09:36:05;22.40;;;4.83;;
19347;SDS011;9810;52.480;9.806;2023-05-24T09:38:33;27.43;;;5.30;;
19347;SDS011;9810;52.480;9.806;2023-05-24T09:41:01;11.63;;;4.60;;
19347;SDS011;9810;52.480;9.806;2023-05-24T09:43:32;15.97;;;4.50;;
19347;SDS011;9810;52.480;9.806;2023-05-24T09:46:01;21.40;;;5.13;;
19347;SDS011;9810;52.480;9.806;2023-05-24T09:48:31;19.63;;;4.87;;
19347;SDS011;9810;52.480;9.806;2023-05-24T09:51:03;21.13;;;5.57;;
19347;SDS011;9810;52.480;9.806;2023-05-24T09:53:33;18.97;;;5.23;;
19347;SDS011;9810;52.480;9.806;2023-05-24T09:56:03;20.93;;;5.03;;
19347;SDS011;9810;52.480;9.806;2023-05-24T09:58:34;15.00;;;4.60;;
19347;SDS011;9810;52.480;9.806;2023-05-24T10:01:02;16.40;;;4.30;;
19347;SDS011;9810;52.480;9.806;2023-05-24T10:03:30;22.40;;;5.93;;
19347;SDS011;9810;52.480;9.806;2023-05-24T10:05:58;18.67;;;5.37;;
19347;SDS011;9810;52.480;9.806;2023-05-24T10:08:27;12.97;;;4.70;;
19347;SDS011;9810;52.480;9.806;2023-05-24T10:10:55;17.50;;;5.67;;
19347;SDS011;9810;52.480;9.806;2023-05-24T10:13:22;17.87;;;5.73;;
19347;SDS011;9810;52.480;9.806;2023-05-24T10:15:52;18.47;;;5.37;;
19347;SDS011;9810;52.480;9.806;2023-05-24T10:18:20;18.97;;;4.60;;
19347;SDS011;9810;52.480;9.806;2023-05-24T10:20:47;19.90;;;4.77;;
19347;SDS011;9810;52.480;9.806;2023-05-24T10:23:17;14.87;;;6.17;;
19347;SDS011;9810;52.480;9.806;2023-05-24T10:25:49;22.17;;;6.10;;
19347;SDS011;9810;52.480;9.806;2023-05-24T10:28:21;21.23;;;6.13;;
19347;SDS011;9810;52.480;9.806;2023-05-24T10:30:53;18.73;;;5.57;;
19347;SDS011;9810;52.480;9.806;2023-05-24T10:33:28;18.80;;;5.30;;
19347;SDS011;9810;52.480;9.806;2023-05-24T10:35:56;21.30;;;6.60;;
19347;SDS011;9810;52.480;9.806;2023-05-24T10:38:24;17.30;;;5.83;;
19347;SDS011;9810;52.480;9.806;2023-05-24T10:40:51;21.27;;;6.17;;
19347;SDS011;9810;52.480;9.806;2023-05-24T10:43:19;16.00;;;5.63;;
19347;SDS011;9810;52.480;9.806;2023-05-24T10:45:47;17.87;;;6.33;;
19347;SDS011;9810;52.480;9.806;2023-05-24T10:48:33;22.13;;;5.80;;
19347;SDS011;9810;52.480;9.806;2023-05-24T10:56:51;21.93;;;5.67;;
19347;SDS011;9810;52.480;9.806;2023-05-24T10:59:23;22.50;;;5.43;;
19347;SDS011;9810;52.480;9.806;2023-05-24T11:01:58;20.97;;;7.07;;
19347;SDS011;9810;52.480;9.806;2023-05-24T11:04:32;16.90;;;5.93;;
19347;SDS011;9810;52.480;9.806;2023-05-24T11:07:02;20.57;;;5.80;;
19347;SDS011;9810;52.480;9.806;2023-05-24T11:09:33;20.60;;;5.63;;
19347;SDS011;9810;52.480;9.806;2023-05-24T11:12:01;21.20;;;5.67;;
19347;SDS011;9810;52.480;9.806;2023-05-24T11:14:32;18.33;;;6.03;;
19347;SDS011;9810;52.480;9.806;2023-05-24T11:17:01;11.07;;;4.87;;
19347;SDS011;9810;52.480;9.806;2023-05-24T11:19:32;21.83;;;5.00;;
19347;SDS011;9810;52.480;9.806;2023-05-24T11:22:01;27.07;;;6.63;;
19347;SDS011;9810;52.480;9.806;2023-05-24T11:24:30;20.20;;;5.10;;
19347;SDS011;9810;52.480;9.806;2023-05-24T11:26:58;22.33;;;7.40;;
19347;SDS011;9810;52.480;9.806;2023-05-24T11:29:28;15.67;;;5.10;;
19347;SDS011;9810;52.480;9.806;2023-05-24T11:31:56;16.17;;;5.57;;
19347;SDS011;9810;52.480;9.806;2023-05-24T11:34:28;17.50;;;5.40;;
19347;SDS011;9810;52.480;9.806;2023-05-24T11:36:57;22.23;;;4.77;;
19347;SDS011;9810;52.480;9.806;2023-05-24T11:39:29;18.67;;;4.63;;
19347;SDS011;9810;52.480;9.806;2023-05-24T11:41:57;19.40;;;4.77;;
19347;SDS011;9810;52.480;9.806;2023-05-24T11:44:26;19.83;;;4.93;;
19347;SDS011;9810;52.480;9.806;2023-05-24T11:46:56;18.80;;;4.83;;
19347;SDS011;9810;52.480;9.806;2023-05-24T11:49:24;23.07;;;4.53;;
19347;SDS011;9810;52.480;9.806;2023-05-24T11:51:58;20.00;;;5.57;;
19347;SDS011;9810;52.480;9.806;2023-05-24T11:54:26;12.83;;;4.83;;
19347;SDS011;9810;52.480;9.806;2023-05-24T11:56:53;14.77;;;4.97;;
19347;SDS011;9810;52.480;9.806;2023-05-24T11:59:21;19.07;;;6.03;;
19347;SDS011;9810;52.480;9.806;2023-05-24T12:01:55;22.73;;;4.90;;
19347;SDS011;9810;52.480;9.806;2023-05-24T12:04:25;25.37;;;6.27;;
19347;SDS011;9810;52.480;9.806;2023-05-24T12:06:52;18.70;;;4.67;;
19347;SDS011;9810;52.480;9.806;2023-05-24T12:09:22;20.80;;;5.00;;
19347;SDS011;9810;52.480;9.806;2023-05-24T12:11:50;30.73;;;5.90;;
19347;SDS011;9810;52.480;9.806;2023-05-24T12:14:19;21.27;;;4.67;;
19347;SDS011;9810;52.480;9.806;2023-05-24T12:16:52;18.30;;;5.20;;
19347;SDS011;9810;52.480;9.806;2023-05-24T12:19:21;21.87;;;5.70;;
19347;SDS011;9810;52.480;9.806;2023-05-24T12:21:53;18.43;;;5.57;;
19347;SDS011;9810;52.480;9.806;2023-05-24T12:24:24;14.80;;;5.20;;
19347;SDS011;9810;52.480;9.806;2023-05-24T12:26:56;20.10;;;6.10;;
19347;SDS011;9810;52.480;9.806;2023-05-24T12:29:25;18.17;;;5.97;;
19347;SDS011;9810;52.480;9.806;2023-05-24T12:31:53;15.30;;;5.47;;
19347;SDS011;9810;52.480;9.806;2023-05-24T12:34:20;14.20;;;5.60;;
19347;SDS011;9810;52.480;9.806;2023-05-24T12:36:47;12.57;;;4.93;;
19347;SDS011;9810;52.480;9.806;2023-05-24T12:39:16;18.50;;;4.83;;
19347;SDS011;9810;52.480;9.806;2023-05-24T12:41:48;17.77;;;5.20;;
19347;SDS011;9810;52.480;9.806;2023-05-24T12:44:16;15.47;;;4.47;;
19347;SDS011;9810;52.480;9.806;2023-05-24T12:46:49;15.77;;;5.40;;
19347;SDS011;9810;52.480;9.806;2023-05-24T12:49:17;16.50;;;4.77;;
19347;SDS011;9810;52.480;9.806;2023-05-24T12:51:44;15.60;;;4.93;;
19347;SDS011;9810;52.480;9.806;2023-05-24T12:54:12;13.60;;;4.17;;
19347;SDS011;9810;52.480;9.806;2023-05-24T12:56:39;17.57;;;4.20;;
19347;SDS011;9810;52.480;9.806;2023-05-24T12:59:09;15.30;;;4.37;;
19347;SDS011;9810;52.480;9.806;2023-05-24T13:01:36;16.73;;;3.87;;
19347;SDS011;9810;52.480;9.806;2023-05-24T13:04:04;9.47;;;3.27;;
19347;SDS011;9810;52.480;9.806;2023-05-24T13:06:31;12.53;;;5.03;;
19347;SDS011;9810;52.480;9.806;2023-05-24T13:08:58;10.90;;;2.87;;
19347;SDS011;9810;52.480;9.806;2023-05-24T13:11:26;10.57;;;4.17;;
19347;SDS011;9810;52.480;9.806;2023-05-24T13:13:55;11.20;;;3.80;;
19347;SDS011;9810;52.480;9.806;2023-05-24T13:16:25;8.90;;;3.30;;
19347;SDS011;9810;52.480;9.806;2023-05-24T13:18:52;9.23;;;3.20;;
19347;SDS011;9810;52.480;9.806;2023-05-24T13:21:20;10.13;;;3.87;;
19347;SDS011;9810;52.480;9.806;2023-05-24T13:23:48;10.37;;;3.50;;
19347;SDS011;9810;52.480;9.806;2023-05-24T13:26:16;11.87;;;3.70;;
19347;SDS011;9810;52.480;9.806;2023-05-24T13:28:44;10.03;;;3.20;;
19347;SDS011;9810;52.480;9.806;2023-05-24T13:31:11;5.73;;;2.50;;
19347;SDS011;9810;52.480;9.806;2023-05-24T13:33:40;6.53;;;3.30;;
19347;SDS011;9810;52.480;9.806;2023-05-24T13:36:10;11.37;;;3.63;;
19347;SDS011;9810;52.480;9.806;2023-05-24T13:38:37;6.23;;;2.53;;
19347;SDS011;9810;52.480;9.806;2023-05-24T13:41:04;8.17;;;3.30;;
19347;SDS011;9810;52.480;9.806;2023-05-24T13:43:32;6.37;;;2.47;;
19347;SDS011;9810;52.480;9.806;2023-05-24T13:45:59;10.87;;;2.57;;
19347;SDS011;9810;52.480;9.806;2023-05-24T13:48:26;9.07;;;2.53;;
19347;SDS011;9810;52.480;9.806;2023-05-24T13:50:56;7.37;;;2.83;;
19347;SDS011;9810;52.480;9.806;2023-05-24T13:53:23;5.67;;;3.30;;
19347;SDS011;9810;52.480;9.806;2023-05-24T13:55:50;8.63;;;3.33;;
19347;SDS011;9810;52.480;9.806;2023-05-24T13:58:18;11.23;;;3.17;;
19347;SDS011;9810;52.480;9.806;2023-05-24T14:00:45;10.93;;;3.73;;
19347;SDS011;9810;52.480;9.806;2023-05-24T14:03:12;12.03;;;4.10;;
19347;SDS011;9810;52.480;9.806;2023-05-24T14:05:40;15.77;;;4.10;;
19347;SDS011;9810;52.480;9.806;2023-05-24T14:08:09;11.87;;;3.93;;
19347;SDS011;9810;52.480;9.806;2023-05-24T14:10:37;13.60;;;3.87;;
19347;SDS011;9810;52.480;9.806;2023-05-24T14:13:05;6.77;;;3.20;;
19347;SDS011;9810;52.480;9.806;2023-05-24T14:15:32;12.63;;;3.65;;
19347;SDS011;9810;52.480;9.806;2023-05-24T14:17:59;12.80;;;4.00;;
19347;SDS011;9810;52.480;9.806;2023-05-24T14:33:22;10.97;;;3.27;;
19347;SDS011;9810;52.480;9.806;2023-05-24T14:35:50;11.07;;;3.80;;
19347;SDS011;9810;52.480;9.806;2023-05-24T14:38:19;10.30;;;3.97;;
19347;SDS011;9810;52.480;9.806;2023-05-24T14:40:47;14.37;;;5.73;;
19347;SDS011;9810;52.480;9.806;2023-05-24T14:43:15;12.80;;;3.97;;
19347;SDS011;9810;52.480;9.806;2023-05-24T14:45:42;10.83;;;4.07;;
19347;SDS011;9810;52.480;9.806;2023-05-24T14:48:10;16.37;;;4.50;;
19347;SDS011;9810;52.480;9.806;2023-05-24T14:50:38;10.47;;;4.40;;
19347;SDS011;9810;52.480;9.806;2023-05-24T14:53:07;14.70;;;4.87;;
19347;SDS011;9810;52.480;9.806;2023-05-24T14:55:36;14.10;;;4.53;;
19347;SDS011;9810;52.480;9.806;2023-05-24T14:58:04;11.67;;;4.97;;
19347;SDS011;9810;52.480;9.806;2023-05-24T15:00:33;16.70;;;5.40;;
19347;SDS011;9810;52.480;9.806;2023-05-24T15:03:00;20.47;;;5.23;;
19347;SDS011;9810;52.480;9.806;2023-05-24T15:05:29;18.97;;;5.63;;
19347;SDS011;9810;52.480;9.806;2023-05-24T15:08:01;17.27;;;5.97;;
19347;SDS011;9810;52.480;9.806;2023-05-24T15:10:29;13.50;;;4.60;;
19347;SDS011;9810;52.480;9.806;2023-05-24T15:15:27;25.33;;;7.80;;
19347;SDS011;9810;52.480;9.806;2023-05-24T15:17:55;18.67;;;6.20;;